Terminal Aerodrome Forecast
Issued by NWS Bismarck, ND

Home | Current Version | Previous Version | Graphics & Text | Print | Product List | Glossary On
Versions: 1 2 3 4 5 6 7 8 9 10 11 12 13 14 15 16 17
000
FTUS43 KBIS 220400 AAA
TAFBIS
TAF AMD
KBIS 220436Z 2205/2224 25003KT P6SM MIFG SKC
      TEMPO 2205/2207 2SM BR
     FM220700 22004KT 3SM BR SKC
     FM221200 19006KT P6SM SCT250
     FM221900 24012KT P6SM BKN150=

USA.gov is the U.S. government's official web portal to all federal, state and local government web resources and services.